createdAt,value
2022-09-17T00:01:33.218Z,1.88
2022-09-17T00:04:04.698Z,2.22
2022-09-17T00:06:35.174Z,1.73
2022-09-17T00:09:04.550Z,3.42
2022-09-17T00:11:34.134Z,3.22
2022-09-17T00:14:04.600Z,1.80
2022-09-17T00:16:35.390Z,3.33
2022-09-17T00:19:05.598Z,2.53
2022-09-17T00:21:33.089Z,4.00
2022-09-17T00:24:02.576Z,2.80
2022-09-17T00:26:31.466Z,1.60
2022-09-17T00:29:00.255Z,1.67
2022-09-17T00:31:30.564Z,1.93
2022-09-17T00:33:59.776Z,3.50
2022-09-17T00:36:30.409Z,1.60
2022-09-17T00:38:59.712Z,1.40
2022-09-17T00:41:30.518Z,2.60
2022-09-17T00:43:59.704Z,1.75
2022-09-17T00:46:33.659Z,2.95
2022-09-17T00:49:05.175Z,0.95
2022-09-17T00:51:36.286Z,0.77
2022-09-17T00:54:07.155Z,1.55
2022-09-17T00:56:37.187Z,1.42
2022-09-17T00:59:08.182Z,2.80
2022-09-17T01:01:37.464Z,1.45
2022-09-17T01:04:05.093Z,1.83
2022-09-17T01:06:37.023Z,6.40
2022-09-17T01:09:22.843Z,2.80
2022-09-17T01:12:13.367Z,2.17
2022-09-17T01:14:54.293Z,1.38
2022-09-17T01:17:32.507Z,2.05
2022-09-17T01:20:38.282Z,3.13
2022-09-17T01:23:32.591Z,2.70
2022-09-17T01:26:19.123Z,2.05
2022-09-17T01:28:52.799Z,2.92
2022-09-17T01:31:39.110Z,1.73
2022-09-17T01:34:15.685Z,2.35
2022-09-17T01:36:50.418Z,2.03
2022-09-17T01:39:29.683Z,1.55
2022-09-17T01:42:04.890Z,2.70
2022-09-17T01:44:38.183Z,1.70
2022-09-17T01:47:20.751Z,2.90
2022-09-17T01:49:51.730Z,5.75
2022-09-17T01:52:20.172Z,2.63
2022-09-17T01:54:51.580Z,1.70
2022-09-17T01:57:22.976Z,3.03
2022-09-17T01:59:55.445Z,4.60
2022-09-17T02:02:28.811Z,2.78
2022-09-17T02:05:00.425Z,3.35
2022-09-17T02:07:30.046Z,3.17
2022-09-17T02:10:03.889Z,2.30
2022-09-17T02:12:35.912Z,1.83
2022-09-17T02:15:07.739Z,4.75
2022-09-17T02:17:42.923Z,4.28
2022-09-17T02:20:11.713Z,4.30
2022-09-17T02:22:42.867Z,2.47
2022-09-17T02:25:18.275Z,4.50
2022-09-17T02:27:53.497Z,3.05
2022-09-17T02:30:21.032Z,3.20
2022-09-17T02:32:50.041Z,4.47
2022-09-17T02:35:19.810Z,3.75
2022-09-17T02:37:47.167Z,2.63
2022-09-17T02:40:16.599Z,2.50
2022-09-17T02:42:57.321Z,3.65
2022-09-17T02:45:38.047Z,2.55
2022-09-17T02:48:21.013Z,3.63
2022-09-17T02:51:05.928Z,4.18
2022-09-17T02:53:43.103Z,1.83
2022-09-17T02:56:20.648Z,4.85
2022-09-17T02:58:53.797Z,3.58
2022-09-17T03:01:25.640Z,4.10
2022-09-17T03:04:00.180Z,2.53
2022-09-17T03:06:27.689Z,3.97
2022-09-17T03:08:57.360Z,2.50
2022-09-17T03:11:25.157Z,2.35
2022-09-17T03:13:53.332Z,2.80
2022-09-17T03:16:20.812Z,3.60
2022-09-17T03:18:48.151Z,3.67
2022-09-17T03:21:16.924Z,2.83
2022-09-17T03:23:44.407Z,1.93
2022-09-17T03:26:11.777Z,2.55
2022-09-17T03:28:40.012Z,2.85
2022-09-17T03:31:07.678Z,2.33
2022-09-17T03:33:35.105Z,3.60
2022-09-17T03:36:02.636Z,1.35
2022-09-17T03:38:31.374Z,2.50
2022-09-17T03:41:00.136Z,1.50
2022-09-17T03:43:28.387Z,2.23
2022-09-17T03:45:57.259Z,2.90
2022-09-17T03:48:24.914Z,2.53
2022-09-17T03:50:52.561Z,3.38
2022-09-17T03:53:20.087Z,1.27
2022-09-17T03:55:48.710Z,3.22
2022-09-17T03:58:16.197Z,3.72
2022-09-17T04:00:43.658Z,2.22
2022-09-17T04:03:11.065Z,0.95
2022-09-17T04:05:38.443Z,2.38
2022-09-17T04:08:06.027Z,5.20
2022-09-17T04:10:33.471Z,3.60
2022-09-17T04:13:02.218Z,0.80
2022-09-17T04:15:29.588Z,2.10
2022-09-17T04:17:57.894Z,7.55
2022-09-17T04:20:25.825Z,1.27
2022-09-17T04:22:53.470Z,1.73
2022-09-17T04:25:20.893Z,3.60
2022-09-17T04:27:48.068Z,2.25
2022-09-17T04:30:17.515Z,2.97
2022-09-17T04:32:46.439Z,3.40
2022-09-17T04:35:13.794Z,1.23
2022-09-17T04:37:41.136Z,1.50
2022-09-17T04:40:10.702Z,2.42
2022-09-17T04:42:38.004Z,2.83
2022-09-17T04:45:06.184Z,3.10
2022-09-17T04:47:34.735Z,2.75
2022-09-17T04:50:01.910Z,2.03
2022-09-17T04:52:31.170Z,2.10
2022-09-17T04:54:58.564Z,2.10
2022-09-17T04:57:26.352Z,3.08
2022-09-17T04:59:53.702Z,3.33
2022-09-17T05:02:21.125Z,2.05
2022-09-17T05:04:50.835Z,3.80
2022-09-17T05:07:18.302Z,1.73
2022-09-17T05:09:45.626Z,2.83
2022-09-17T05:12:12.964Z,4.18
2022-09-17T05:14:40.216Z,3.58
2022-09-17T05:17:07.521Z,2.05
2022-09-17T05:19:34.827Z,2.15
2022-09-17T05:22:04.659Z,2.17
2022-09-17T05:24:32.093Z,2.10
2022-09-17T05:27:00.404Z,2.67
2022-09-17T05:29:28.160Z,3.97
2022-09-17T05:31:56.784Z,3.40
2022-09-17T05:34:24.320Z,3.50
2022-09-17T05:36:52.346Z,3.20
2022-09-17T05:39:22.844Z,3.80
2022-09-17T05:41:49.992Z,3.00
2022-09-17T05:44:18.225Z,3.30
2022-09-17T05:46:46.374Z,2.65
2022-09-17T05:49:15.197Z,2.78
2022-09-17T05:51:42.473Z,2.43
2022-09-17T05:54:09.898Z,2.83
2022-09-17T05:56:39.905Z,2.15
2022-09-17T05:59:07.533Z,3.05
2022-09-17T06:01:35.512Z,2.45
2022-09-17T06:04:05.032Z,2.58
2022-09-17T06:06:33.012Z,3.20
2022-09-17T06:09:01.227Z,3.08
2022-09-17T06:11:28.846Z,2.08
2022-09-17T06:13:57.572Z,2.65
2022-09-17T06:16:25.630Z,3.30
2022-09-17T06:18:53.442Z,6.07
2022-09-17T06:21:25.431Z,4.53
2022-09-17T06:23:54.417Z,1.98
2022-09-17T06:26:21.876Z,2.20
2022-09-17T06:28:49.323Z,1.92
2022-09-17T06:31:18.344Z,3.60
2022-09-17T06:33:45.793Z,2.28
2022-09-17T06:36:14.424Z,6.80
2022-09-17T06:38:42.764Z,3.55
2022-09-17T06:41:10.107Z,3.95
2022-09-17T06:43:37.429Z,2.70
2022-09-17T06:46:06.296Z,2.63
2022-09-17T06:48:36.101Z,3.50
2022-09-17T06:53:31.940Z,3.10
2022-09-17T06:56:06.086Z,1.50
2022-09-17T06:58:34.609Z,2.35
2022-09-17T07:01:02.763Z,3.20
2022-09-17T07:03:31.117Z,2.13
2022-09-17T07:06:00.717Z,3.15
2022-09-17T07:08:28.226Z,2.15
2022-09-17T07:10:56.752Z,3.30
2022-09-17T07:13:24.602Z,3.80
2022-09-17T07:15:56.410Z,3.47
2022-09-17T07:18:24.617Z,2.40
2022-09-17T07:20:56.899Z,2.53
2022-09-17T07:23:27.321Z,3.63
2022-09-17T07:25:56.175Z,2.90
2022-09-17T07:28:24.367Z,2.87
2022-09-17T07:30:53.036Z,3.47
2022-09-17T07:33:24.716Z,1.20
2022-09-17T07:35:56.127Z,1.20
2022-09-17T07:38:25.590Z,1.50
2022-09-17T07:40:59.915Z,3.53
2022-09-17T07:43:28.485Z,3.08
2022-09-17T07:45:57.640Z,0.77
2022-09-17T07:48:25.034Z,1.38
2022-09-17T07:50:52.800Z,1.25
2022-09-17T07:53:20.292Z,1.88
2022-09-17T07:55:53.638Z,1.60
2022-09-17T07:58:21.208Z,1.00
2022-09-17T08:00:49.091Z,1.00
2022-09-17T08:03:16.886Z,1.67
2022-09-17T08:05:44.363Z,2.10
2022-09-17T08:08:11.670Z,3.38
2022-09-17T08:10:39.060Z,0.68
2022-09-17T08:13:10.273Z,0.77
2022-09-17T08:15:38.115Z,2.83
2022-09-17T08:18:05.490Z,0.60
2022-09-17T08:20:33.009Z,1.80
2022-09-17T08:23:01.882Z,1.50
2022-09-17T08:25:30.461Z,0.65
2022-09-17T08:27:58.987Z,1.00
2022-09-17T08:30:28.473Z,1.00
2022-09-17T08:35:26.351Z,4.07
2022-09-17T08:37:55.544Z,1.15
2022-09-17T08:40:23.554Z,2.97
2022-09-17T08:42:57.459Z,2.75
2022-09-17T08:45:26.515Z,1.65
2022-09-17T08:48:02.008Z,1.30
2022-09-17T08:50:32.846Z,1.23
2022-09-17T08:53:25.146Z,3.67
2022-09-17T08:55:59.261Z,12.50
2022-09-17T08:58:55.286Z,8.15
2022-09-17T09:01:31.263Z,11.43
2022-09-17T09:04:12.973Z,12.20
2022-09-17T09:06:46.398Z,11.50
2022-09-17T09:09:17.406Z,8.73
2022-09-17T09:11:49.897Z,15.57
2022-09-17T09:14:23.069Z,15.10
2022-09-17T09:16:52.784Z,5.00
2022-09-17T09:22:40.596Z,3.40
2022-09-17T09:25:20.434Z,1.75
2022-09-17T09:27:57.353Z,1.08
2022-09-17T09:30:25.631Z,2.88
2022-09-17T09:32:58.822Z,3.88
2022-09-17T09:35:29.457Z,2.25
2022-09-17T09:38:02.235Z,6.63
2022-09-17T09:40:36.783Z,6.20
2022-09-17T09:43:14.906Z,2.20
2022-09-17T09:45:58.873Z,1.05
2022-09-17T09:48:35.424Z,3.15
2022-09-17T09:51:17.767Z,6.00
2022-09-17T09:54:01.836Z,4.72
2022-09-17T09:56:41.624Z,5.97
2022-09-17T09:59:11.334Z,8.23
2022-09-17T10:04:16.989Z,6.40
2022-09-17T10:06:46.258Z,14.48
2022-09-17T10:09:16.618Z,17.42
2022-09-17T10:12:01.178Z,32.60
2022-09-17T10:14:29.917Z,29.25
2022-09-17T10:17:17.213Z,26.77
2022-09-17T10:19:45.645Z,34.90
2022-09-17T10:22:26.383Z,49.95
2022-09-17T10:24:56.031Z,42.60
2022-09-17T10:27:25.113Z,24.27
2022-09-17T10:30:01.477Z,25.52
2022-09-17T10:32:30.405Z,18.77
2022-09-17T10:34:59.780Z,8.40
2022-09-17T10:37:47.960Z,7.13
2022-09-17T10:40:27.568Z,7.97
2022-09-17T10:45:40.988Z,8.90
2022-09-17T10:48:17.462Z,7.13
2022-09-17T10:50:48.852Z,5.85
2022-09-17T10:53:19.832Z,9.75
2022-09-17T10:55:53.626Z,9.88
2022-09-17T10:58:33.101Z,24.25
2022-09-17T11:01:15.788Z,10.48
2022-09-17T11:03:59.692Z,3.20
2022-09-17T11:06:44.007Z,3.22
2022-09-17T11:09:27.964Z,11.45
2022-09-17T11:12:06.341Z,5.38
2022-09-17T11:14:47.980Z,2.10
2022-09-17T11:17:39.017Z,5.45
2022-09-17T11:20:18.504Z,8.52
2022-09-17T11:22:55.395Z,4.22
2022-09-17T11:25:44.672Z,2.92
2022-09-17T11:28:26.381Z,2.03
2022-09-17T11:31:07.841Z,6.20
2022-09-17T11:34:03.247Z,4.63
2022-09-17T11:36:37.102Z,5.28
2022-09-17T11:39:14.318Z,3.92
2022-09-17T11:41:47.095Z,6.03
2022-09-17T11:44:20.887Z,3.10
2022-09-17T11:46:53.231Z,2.92
2022-09-17T11:49:29.713Z,2.85
2022-09-17T11:52:02.221Z,4.45
2022-09-17T11:54:32.634Z,2.40
2022-09-17T11:57:11.116Z,1.20
2022-09-17T11:59:45.021Z,1.23
2022-09-17T12:02:22.215Z,2.17
2022-09-17T12:04:57.184Z,2.15
2022-09-17T12:07:36.012Z,2.42
2022-09-17T12:10:20.679Z,8.27
2022-09-17T12:12:55.577Z,3.80
2022-09-17T12:15:26.764Z,2.47
2022-09-17T12:18:20.592Z,9.00
2022-09-17T12:20:49.594Z,4.15
2022-09-17T12:23:22.381Z,3.05
2022-09-17T12:25:59.033Z,2.10
2022-09-17T12:28:35.464Z,2.47
2022-09-17T12:31:11.028Z,5.13
2022-09-17T12:33:45.590Z,4.40
2022-09-17T12:36:27.881Z,3.72
2022-09-17T12:39:16.980Z,3.97
2022-09-17T12:41:57.093Z,3.97
2022-09-17T12:44:41.360Z,3.45
2022-09-17T12:47:39.652Z,2.92
2022-09-17T12:50:19.956Z,4.13
2022-09-17T12:53:07.467Z,4.60
2022-09-17T12:55:44.674Z,5.20
2022-09-17T12:58:24.908Z,7.72
2022-09-17T13:01:00.108Z,4.82
2022-09-17T13:03:32.211Z,5.32
2022-09-17T13:06:14.750Z,4.35
2022-09-17T13:09:32.331Z,7.35
2022-09-17T13:12:08.747Z,12.75
2022-09-17T13:15:05.442Z,6.05
2022-09-17T13:17:46.775Z,5.65
2022-09-17T13:20:26.065Z,7.47
2022-09-17T13:22:56.393Z,5.57
2022-09-17T13:25:24.972Z,5.10
2022-09-17T13:28:06.896Z,5.03
2022-09-17T13:30:56.684Z,4.45
2022-09-17T13:33:56.104Z,3.53
2022-09-17T13:36:54.832Z,4.68
2022-09-17T13:39:41.663Z,2.57
2022-09-17T13:42:20.068Z,5.03
2022-09-17T13:44:52.091Z,2.42
2022-09-17T13:47:24.796Z,2.20
2022-09-17T13:49:58.441Z,3.28
2022-09-17T13:52:44.911Z,2.80
2022-09-17T13:55:34.793Z,3.50
2022-09-17T13:58:07.306Z,2.92
2022-09-17T14:00:52.326Z,2.47
2022-09-17T14:03:50.161Z,5.10
2022-09-17T14:06:53.785Z,2.13
2022-09-17T14:09:39.250Z,8.38
2022-09-17T14:12:40.774Z,4.35
2022-09-17T14:15:36.698Z,3.15
2022-09-17T14:18:36.060Z,5.07
2022-09-17T14:21:14.567Z,3.30
2022-09-17T14:23:49.661Z,2.72
2022-09-17T14:26:27.747Z,1.92
2022-09-17T14:29:04.310Z,1.50
2022-09-17T14:31:36.326Z,3.97
2022-09-17T14:34:05.221Z,2.15
2022-09-17T14:36:35.776Z,1.92
2022-09-17T14:39:09.166Z,1.33
2022-09-17T14:41:40.637Z,2.38
2022-09-17T14:44:17.508Z,2.30
2022-09-17T14:46:54.513Z,3.13
2022-09-17T14:49:23.144Z,2.95
2022-09-17T14:51:50.537Z,4.38
2022-09-17T14:54:25.083Z,1.75
2022-09-17T14:57:05.741Z,2.78
2022-09-17T14:59:49.564Z,2.10
2022-09-17T15:02:29.507Z,2.53
2022-09-17T15:04:57.452Z,2.28
2022-09-17T15:07:26.034Z,2.70
2022-09-17T15:09:55.624Z,2.03
2022-09-17T15:12:28.770Z,1.50
2022-09-17T15:14:57.447Z,1.40
2022-09-17T15:17:24.737Z,1.15
2022-09-17T15:19:54.803Z,2.92
2022-09-17T15:22:25.459Z,2.53
2022-09-17T15:24:56.791Z,2.10
2022-09-17T15:27:27.740Z,2.67
2022-09-17T15:29:59.268Z,2.22
2022-09-17T15:32:26.853Z,2.17
2022-09-17T15:35:23.941Z,2.40
2022-09-17T15:40:42.176Z,2.75
2022-09-17T15:43:21.956Z,2.38
2022-09-17T15:45:51.405Z,2.75
2022-09-17T15:48:34.712Z,2.10
2022-09-17T15:51:04.587Z,2.85
2022-09-17T15:53:33.085Z,2.17
2022-09-17T15:56:07.892Z,2.55
2022-09-17T15:58:51.730Z,3.10
2022-09-17T16:01:54.677Z,2.15
2022-09-17T16:04:28.119Z,3.22
2022-09-17T16:07:27.307Z,4.00
2022-09-17T16:09:56.744Z,3.17
2022-09-17T16:12:27.102Z,2.42
2022-09-17T16:14:55.764Z,2.40
2022-09-17T16:17:40.347Z,1.20
2022-09-17T16:20:17.434Z,1.98
2022-09-17T16:22:47.087Z,1.88
2022-09-17T16:27:50.697Z,2.72
2022-09-17T16:30:19.944Z,4.10
2022-09-17T16:32:47.566Z,2.08
2022-09-17T16:35:17.923Z,1.33
2022-09-17T16:37:49.320Z,1.25
2022-09-17T16:40:17.312Z,3.28
2022-09-17T16:42:44.620Z,1.67
2022-09-17T16:45:16.524Z,2.50
2022-09-17T16:47:45.399Z,2.95
2022-09-17T16:50:15.050Z,2.77
2022-09-17T16:55:10.119Z,2.05
2022-09-17T16:57:37.519Z,2.33
2022-09-17T17:00:05.999Z,2.17
2022-09-17T17:02:34.599Z,1.55
2022-09-17T17:05:01.872Z,1.90
2022-09-17T17:07:32.451Z,3.13
2022-09-17T17:10:00.392Z,1.40
2022-09-17T17:12:28.348Z,1.13
2022-09-17T17:14:56.432Z,3.35
2022-09-17T17:17:24.022Z,1.67
2022-09-17T17:19:53.659Z,1.17
2022-09-17T17:22:20.843Z,1.48
2022-09-17T17:24:48.090Z,1.45
2022-09-17T17:27:15.525Z,2.58
2022-09-17T17:29:43.069Z,1.67
2022-09-17T17:32:10.627Z,1.20
2022-09-17T17:34:37.759Z,1.77
2022-09-17T17:37:06.534Z,1.13
2022-09-17T17:39:33.782Z,1.25
2022-09-17T17:42:01.535Z,2.85
2022-09-17T17:44:28.789Z,1.13
2022-09-17T17:46:56.243Z,2.92
2022-09-17T17:49:26.699Z,5.07
2022-09-17T17:51:53.905Z,2.08
2022-09-17T17:54:22.551Z,2.33
2022-09-17T17:56:51.276Z,1.90
2022-09-17T17:59:18.844Z,2.65
2022-09-17T18:01:46.460Z,3.10
2022-09-17T18:04:14.225Z,1.17
2022-09-17T18:06:42.912Z,2.65
2022-09-17T18:09:10.712Z,3.97
2022-09-17T18:11:39.455Z,2.05
2022-09-17T18:14:12.173Z,1.30
2022-09-17T18:16:40.370Z,1.60
2022-09-17T18:19:11.331Z,1.83
2022-09-17T18:21:38.632Z,1.63
2022-09-17T18:24:06.218Z,1.50
2022-09-17T18:26:34.389Z,2.40
2022-09-17T18:29:07.595Z,1.48
2022-09-17T18:31:37.964Z,1.33
2022-09-17T18:34:07.852Z,2.13
2022-09-17T18:39:33.144Z,7.25
2022-09-17T18:41:53.305Z,2.80
2022-09-17T18:44:22.574Z,1.83
2022-09-17T18:46:51.316Z,3.92
2022-09-17T18:49:18.881Z,2.20
2022-09-17T18:51:47.298Z,2.20
2022-09-17T18:54:14.886Z,4.10
2022-09-17T18:56:42.518Z,3.10
2022-09-17T18:59:10.507Z,1.38
2022-09-17T19:01:39.399Z,1.52
2022-09-17T19:04:10.224Z,1.87
2022-09-17T19:06:37.464Z,2.22
2022-09-17T19:09:06.369Z,4.60
2022-09-17T19:11:35.056Z,4.15
2022-09-17T19:14:02.794Z,4.28
2022-09-17T19:16:30.077Z,2.78
2022-09-17T19:18:58.926Z,4.00
2022-09-17T19:21:26.076Z,6.63
2022-09-17T19:23:54.056Z,3.65
2022-09-17T19:26:23.086Z,1.85
2022-09-17T19:28:52.688Z,1.42
2022-09-17T19:33:48.023Z,1.67
2022-09-17T19:36:18.807Z,3.45
2022-09-17T19:38:47.021Z,3.00
2022-09-17T19:41:17.560Z,2.47
2022-09-17T19:46:17.911Z,1.10
2022-09-17T19:48:46.531Z,2.22
2022-09-17T19:51:14.293Z,1.70
2022-09-17T19:53:43.148Z,2.78
2022-09-17T19:56:12.972Z,1.05
2022-09-17T19:58:41.001Z,1.67
2022-09-17T20:01:10.445Z,1.70
2022-09-17T20:03:39.211Z,1.27
2022-09-17T20:06:08.871Z,1.97
2022-09-17T20:08:41.564Z,1.38
2022-09-17T20:11:12.943Z,1.83
2022-09-17T20:13:40.309Z,1.40
2022-09-17T20:16:09.840Z,1.88
2022-09-17T20:18:37.103Z,1.20
2022-09-17T20:21:07.901Z,2.95
2022-09-17T20:23:35.190Z,3.40
2022-09-17T20:26:02.471Z,3.75
2022-09-17T20:28:31.233Z,4.60
2022-09-17T20:31:02.752Z,2.67
2022-09-17T20:33:30.167Z,5.68
2022-09-17T20:35:58.844Z,6.93
2022-09-17T20:41:15.167Z,4.65
2022-09-17T20:43:45.026Z,2.63
2022-09-17T20:46:13.320Z,2.33
2022-09-17T20:48:41.330Z,2.75
2022-09-17T20:51:11.133Z,7.30
2022-09-17T20:56:07.771Z,3.22
2022-09-17T20:58:36.637Z,1.77
2022-09-17T21:01:10.846Z,2.10
2022-09-17T21:03:38.663Z,3.67
2022-09-17T21:06:06.275Z,1.58
2022-09-17T21:08:34.948Z,2.95
2022-09-17T21:11:05.379Z,4.18
2022-09-17T21:13:32.481Z,2.53
2022-09-17T21:16:00.551Z,2.90
2022-09-17T21:18:29.947Z,8.13
2022-09-17T21:20:57.141Z,7.55
2022-09-17T21:23:25.069Z,4.97
2022-09-17T21:25:52.275Z,6.00
2022-09-17T21:28:20.656Z,6.25
2022-09-17T21:30:48.265Z,4.22
2022-09-17T21:33:22.241Z,3.30
2022-09-17T21:35:51.347Z,4.10
2022-09-17T21:38:21.074Z,5.70
2022-09-17T21:43:22.133Z,5.90
2022-09-17T21:45:58.483Z,3.38
2022-09-17T21:48:25.891Z,2.60
2022-09-17T21:50:54.625Z,1.77
2022-09-17T21:53:21.770Z,6.78
2022-09-17T21:55:48.933Z,4.40
2022-09-17T21:58:16.021Z,7.00
2022-09-17T22:00:43.192Z,5.30
2022-09-17T22:03:10.438Z,7.43
2022-09-17T22:05:37.933Z,7.95
2022-09-17T22:08:06.449Z,5.22
2022-09-17T22:10:33.598Z,4.32
2022-09-17T22:13:01.012Z,2.72
2022-09-17T22:15:28.477Z,8.07
2022-09-17T22:17:55.764Z,4.60
2022-09-17T22:20:25.637Z,7.05
2022-09-17T22:22:53.489Z,6.95
2022-09-17T22:25:22.231Z,6.57
2022-09-17T22:28:10.052Z,2.75
2022-09-17T22:30:37.527Z,2.58
2022-09-17T22:33:04.739Z,2.85
2022-09-17T22:35:32.142Z,2.88
2022-09-17T22:37:59.392Z,4.40
2022-09-17T22:40:28.100Z,4.13
2022-09-17T22:42:55.528Z,2.60
2022-09-17T22:45:22.843Z,2.75
2022-09-17T22:47:50.099Z,2.72
2022-09-17T22:50:17.500Z,2.63
2022-09-17T22:52:47.312Z,3.50
2022-09-17T22:55:15.039Z,2.70
2022-09-17T22:57:43.669Z,2.83
2022-09-17T23:00:12.288Z,2.45
2022-09-17T23:02:39.696Z,2.75
2022-09-17T23:05:07.756Z,4.65
2022-09-17T23:07:35.085Z,3.88
2022-09-17T23:10:02.343Z,3.13
2022-09-17T23:12:30.934Z,5.40
2022-09-17T23:14:59.851Z,3.60
2022-09-17T23:17:29.433Z,2.75
2022-09-17T23:22:24.533Z,3.95
2022-09-17T23:24:51.963Z,2.03
2022-09-17T23:27:19.265Z,1.95
2022-09-17T23:29:46.514Z,5.38
2022-09-17T23:32:15.253Z,8.13
2022-09-17T23:34:42.477Z,3.47
2022-09-17T23:37:09.650Z,4.90
2022-09-17T23:39:36.904Z,6.50
2022-09-17T23:42:04.391Z,4.63
2022-09-17T23:44:31.678Z,7.70
2022-09-17T23:46:58.881Z,5.88
2022-09-17T23:49:27.873Z,8.20
2022-09-17T23:51:55.096Z,6.47
2022-09-17T23:54:22.471Z,9.65
2022-09-17T23:56:49.788Z,9.55
2022-09-17T23:59:17.042Z,5.20
